This is the latest recevied weather packets stored in our database for station/object KT1D-13. If no packets are shown the sender has not sent any weather packets the latest 10 day(s).
| Time | Temp. | Humidity | Pressure | Rain* | Wind** | Luminosity | Snow |
|---|---|---|---|---|---|---|---|
| 1777910120 | 18.33° C | 37% | 1008.1 hPa | 0 mm | - | 911 W/m² | - |
| 1777902316 | 15.56° C | 44% | 1009.5 hPa | 0 mm | - | 629 W/m² | - |
| 1777901120 | 14.44° C | 45% | 1009.8 hPa | 0 mm | - | 570 W/m² | - |
| 1777899920 | 13.89° C | 46% | 1009.9 hPa | 0 mm | - | 511 W/m² | - |
| 1777899321 | 13.33° C | 48% | 1010 hPa | 0 mm | - | 477 W/m² | - |
| 1777896918 | 11.67° C | 49% | 1010.1 hPa | 0 mm | - | 326 W/m² | - |
| 1777895118 | 11.11° C | 51% | 1010.1 hPa | 0 mm | - | 303 W/m² | - |
| 1777894518 | 11.11° C | 51% | 1010.1 hPa | 0 mm | - | 193 W/m² | - |
| 1777889759 | 7.22° C | 61% | 1010.1 hPa | 0 mm | - | 28 W/m² | - |
| 1777886720 | 7.78° C | 59% | 1009.9 hPa | 0 mm | - | 0 W/m² | - |
| 1777884321 | 7.78° C | 57% | 1010 hPa | 0 mm | - | 0 W/m² | - |
| 1777882521 | 8.33° C | 56% | 1009.9 hPa | 0 mm | - | 0 W/m² | - |
| 1777877143 | 6.67° C | 63% | 1009.8 hPa | 0 mm | - | 0 W/m² | - |
| 1777875943 | 6.11° C | 64% | 1009.8 hPa | 0 mm | - | 0 W/m² | - |
| 1777872923 | 6.11° C | 62% | 1009.9 hPa | 0 mm | - | 0 W/m² | - |
| 1777872344 | 5.56° C | 62% | 1009.9 hPa | 0 mm | - | 0 W/m² | - |
| 1777868724 | 4.44° C | 65% | 1009.7 hPa | 0 mm | - | 0 W/m² | - |
| 1777868125 | 4.44° C | 65% | 1009.8 hPa | 0 mm | - | 0 W/m² | - |
| 1777866925 | 4.44° C | 66% | 1009.6 hPa | 0 mm | - | 0 W/m² | - |
| 1777866325 | 5° C | 64% | 1009.5 hPa | 0 mm | - | 0 W/m² | - |
| 1777864526 | 5° C | 61% | 1009.5 hPa | 0 mm | - | 0 W/m² | - |
| 1777860347 | 4.44° C | 64% | 1009.2 hPa | 0 mm | - | 0 W/m² | - |
| 1777856128 | 6.67° C | 58% | 1008.7 hPa | 0 mm | - | 0 W/m² | - |
| 1777855528 | 7.22° C | 57% | 1008.6 hPa | 0 mm | - | 0 W/m² | - |
| 1777854329 | 8.33° C | 51% | 1008.4 hPa | 0 mm | - | 0 W/m² | - |
* Rain latest hour (hover to see other rain measurements)
** Current wind speed in m/s (hover to see current wind gust speed)